sensor_id;sensor_type;location;lat;lon;timestamp;P1;durP1;ratioP1;P2;durP2;ratioP2
19495;SDS011;9888;48.606;9.630;2023-06-22T00:01:51;19.00;;;11.00;;
19495;SDS011;9888;48.606;9.630;2023-06-22T00:04:26;21.80;;;9.77;;
19495;SDS011;9888;48.606;9.630;2023-06-22T00:06:53;18.40;;;10.00;;
19495;SDS011;9888;48.606;9.630;2023-06-22T00:09:20;17.70;;;10.70;;
19495;SDS011;9888;48.606;9.630;2023-06-22T00:11:48;19.93;;;10.57;;
19495;SDS011;9888;48.606;9.630;2023-06-22T00:14:15;20.20;;;10.57;;
19495;SDS011;9888;48.606;9.630;2023-06-22T00:16:42;16.77;;;9.70;;
19495;SDS011;9888;48.606;9.630;2023-06-22T00:19:15;18.70;;;9.63;;
19495;SDS011;9888;48.606;9.630;2023-06-22T00:21:42;23.20;;;10.93;;
19495;SDS011;9888;48.606;9.630;2023-06-22T00:24:12;22.23;;;10.03;;
19495;SDS011;9888;48.606;9.630;2023-06-22T00:26:41;19.77;;;9.23;;
19495;SDS011;9888;48.606;9.630;2023-06-22T00:29:08;20.17;;;10.00;;
19495;SDS011;9888;48.606;9.630;2023-06-22T00:31:35;24.80;;;9.40;;
19495;SDS011;9888;48.606;9.630;2023-06-22T00:34:03;20.20;;;9.50;;
19495;SDS011;9888;48.606;9.630;2023-06-22T00:36:34;17.27;;;8.93;;
19495;SDS011;9888;48.606;9.630;2023-06-22T00:39:02;20.87;;;9.70;;
19495;SDS011;9888;48.606;9.630;2023-06-22T00:41:31;20.10;;;9.47;;
19495;SDS011;9888;48.606;9.630;2023-06-22T00:43:58;16.63;;;8.43;;
19495;SDS011;9888;48.606;9.630;2023-06-22T00:46:28;17.53;;;8.27;;
19495;SDS011;9888;48.606;9.630;2023-06-22T00:48:55;17.73;;;9.10;;
19495;SDS011;9888;48.606;9.630;2023-06-22T00:51:23;18.40;;;8.10;;
19495;SDS011;9888;48.606;9.630;2023-06-22T00:53:51;16.40;;;8.17;;
19495;SDS011;9888;48.606;9.630;2023-06-22T00:56:19;18.00;;;8.10;;
19495;SDS011;9888;48.606;9.630;2023-06-22T00:58:50;15.53;;;8.33;;
19495;SDS011;9888;48.606;9.630;2023-06-22T01:01:18;17.10;;;8.83;;
19495;SDS011;9888;48.606;9.630;2023-06-22T01:03:48;17.80;;;8.10;;
19495;SDS011;9888;48.606;9.630;2023-06-22T01:06:19;17.47;;;8.93;;
19495;SDS011;9888;48.606;9.630;2023-06-22T01:09:06;16.53;;;7.83;;
19495;SDS011;9888;48.606;9.630;2023-06-22T01:11:54;18.80;;;8.40;;
19495;SDS011;9888;48.606;9.630;2023-06-22T01:14:29;17.60;;;8.30;;
19495;SDS011;9888;48.606;9.630;2023-06-22T01:17:18;16.33;;;7.70;;
19495;SDS011;9888;48.606;9.630;2023-06-22T01:19:48;17.17;;;8.40;;
19495;SDS011;9888;48.606;9.630;2023-06-22T01:22:22;16.47;;;7.63;;
19495;SDS011;9888;48.606;9.630;2023-06-22T01:28:05;18.43;;;9.03;;
19495;SDS011;9888;48.606;9.630;2023-06-22T01:30:45;16.23;;;7.83;;
19495;SDS011;9888;48.606;9.630;2023-06-22T01:33:16;15.80;;;8.00;;
19495;SDS011;9888;48.606;9.630;2023-06-22T01:38:54;16.03;;;7.67;;
19495;SDS011;9888;48.606;9.630;2023-06-22T01:41:28;14.83;;;7.43;;
19495;SDS011;9888;48.606;9.630;2023-06-22T01:43:57;19.07;;;8.97;;
19495;SDS011;9888;48.606;9.630;2023-06-22T01:46:27;17.00;;;8.17;;
19495;SDS011;9888;48.606;9.630;2023-06-22T01:49:04;18.40;;;8.40;;
19495;SDS011;9888;48.606;9.630;2023-06-22T01:51:38;14.47;;;7.30;;
19495;SDS011;9888;48.606;9.630;2023-06-22T01:54:07;20.23;;;7.23;;
19495;SDS011;9888;48.606;9.630;2023-06-22T01:56:35;15.30;;;7.60;;
19495;SDS011;9888;48.606;9.630;2023-06-22T02:02:09;15.13;;;6.93;;
19495;SDS011;9888;48.606;9.630;2023-06-22T02:04:47;12.77;;;6.63;;
19495;SDS011;9888;48.606;9.630;2023-06-22T02:07:25;14.27;;;7.20;;
19495;SDS011;9888;48.606;9.630;2023-06-22T02:09:59;13.90;;;6.70;;
19495;SDS011;9888;48.606;9.630;2023-06-22T02:12:28;14.20;;;7.20;;
19495;SDS011;9888;48.606;9.630;2023-06-22T02:14:56;16.30;;;7.50;;
19495;SDS011;9888;48.606;9.630;2023-06-22T02:17:26;16.30;;;7.20;;
19495;SDS011;9888;48.606;9.630;2023-06-22T02:20:01;16.63;;;6.90;;
19495;SDS011;9888;48.606;9.630;2023-06-22T02:22:34;12.20;;;6.60;;
19495;SDS011;9888;48.606;9.630;2023-06-22T02:25:01;16.83;;;6.67;;
19495;SDS011;9888;48.606;9.630;2023-06-22T02:27:29;14.23;;;6.20;;
19495;SDS011;9888;48.606;9.630;2023-06-22T02:29:57;14.10;;;7.30;;
19495;SDS011;9888;48.606;9.630;2023-06-22T02:32:25;14.77;;;6.10;;
19495;SDS011;9888;48.606;9.630;2023-06-22T02:34:52;13.17;;;6.33;;
19495;SDS011;9888;48.606;9.630;2023-06-22T02:37:26;12.70;;;6.33;;
19495;SDS011;9888;48.606;9.630;2023-06-22T02:39:55;16.60;;;7.23;;
19495;SDS011;9888;48.606;9.630;2023-06-22T02:42:22;19.53;;;7.30;;
19495;SDS011;9888;48.606;9.630;2023-06-22T02:44:51;15.70;;;7.40;;
19495;SDS011;9888;48.606;9.630;2023-06-22T02:47:18;14.90;;;7.13;;
19495;SDS011;9888;48.606;9.630;2023-06-22T02:49:47;20.00;;;8.90;;
19495;SDS011;9888;48.606;9.630;2023-06-22T02:52:15;15.77;;;8.30;;
19495;SDS011;9888;48.606;9.630;2023-06-22T02:54:42;16.50;;;8.80;;
19495;SDS011;9888;48.606;9.630;2023-06-22T02:57:14;17.37;;;8.60;;
19495;SDS011;9888;48.606;9.630;2023-06-22T02:59:42;17.03;;;7.53;;
19495;SDS011;9888;48.606;9.630;2023-06-22T03:02:09;16.60;;;7.77;;
19495;SDS011;9888;48.606;9.630;2023-06-22T03:04:36;19.37;;;8.10;;
19495;SDS011;9888;48.606;9.630;2023-06-22T03:07:03;15.13;;;7.53;;
19495;SDS011;9888;48.606;9.630;2023-06-22T03:09:31;15.23;;;7.23;;
19495;SDS011;9888;48.606;9.630;2023-06-22T03:12:00;19.30;;;8.10;;
19495;SDS011;9888;48.606;9.630;2023-06-22T03:14:27;18.03;;;8.07;;
19495;SDS011;9888;48.606;9.630;2023-06-22T03:16:54;16.00;;;7.50;;
19495;SDS011;9888;48.606;9.630;2023-06-22T03:19:27;22.00;;;8.57;;
19495;SDS011;9888;48.606;9.630;2023-06-22T03:21:57;17.87;;;7.90;;
19495;SDS011;9888;48.606;9.630;2023-06-22T03:24:29;15.33;;;8.10;;
19495;SDS011;9888;48.606;9.630;2023-06-22T03:26:57;17.93;;;7.97;;
19495;SDS011;9888;48.606;9.630;2023-06-22T03:29:25;19.00;;;8.43;;
19495;SDS011;9888;48.606;9.630;2023-06-22T03:31:53;21.07;;;8.50;;
19495;SDS011;9888;48.606;9.630;2023-06-22T03:34:27;19.97;;;8.97;;
19495;SDS011;9888;48.606;9.630;2023-06-22T03:37:01;15.50;;;8.17;;
19495;SDS011;9888;48.606;9.630;2023-06-22T03:39:29;15.60;;;7.60;;
19495;SDS011;9888;48.606;9.630;2023-06-22T03:42:02;18.30;;;8.37;;
19495;SDS011;9888;48.606;9.630;2023-06-22T03:44:29;16.47;;;8.67;;
19495;SDS011;9888;48.606;9.630;2023-06-22T03:46:56;20.97;;;9.00;;
19495;SDS011;9888;48.606;9.630;2023-06-22T03:52:26;15.37;;;8.37;;
19495;SDS011;9888;48.606;9.630;2023-06-22T03:54:54;14.63;;;7.27;;
19495;SDS011;9888;48.606;9.630;2023-06-22T03:57:24;16.77;;;7.97;;
19495;SDS011;9888;48.606;9.630;2023-06-22T03:59:51;14.87;;;7.30;;
19495;SDS011;9888;48.606;9.630;2023-06-22T04:02:20;16.40;;;8.10;;
19495;SDS011;9888;48.606;9.630;2023-06-22T04:04:48;13.30;;;7.33;;
19495;SDS011;9888;48.606;9.630;2023-06-22T04:07:21;15.33;;;7.33;;
19495;SDS011;9888;48.606;9.630;2023-06-22T04:09:52;17.60;;;8.20;;
19495;SDS011;9888;48.606;9.630;2023-06-22T04:12:19;15.00;;;7.93;;
19495;SDS011;9888;48.606;9.630;2023-06-22T04:14:54;17.80;;;7.70;;
19495;SDS011;9888;48.606;9.630;2023-06-22T04:17:24;16.60;;;8.17;;
19495;SDS011;9888;48.606;9.630;2023-06-22T04:19:53;18.70;;;7.40;;
19495;SDS011;9888;48.606;9.630;2023-06-22T04:22:23;15.63;;;7.77;;
19495;SDS011;9888;48.606;9.630;2023-06-22T04:24:50;15.50;;;7.23;;
19495;SDS011;9888;48.606;9.630;2023-06-22T04:27:19;16.70;;;7.67;;
19495;SDS011;9888;48.606;9.630;2023-06-22T04:29:48;25.60;;;7.57;;
19495;SDS011;9888;48.606;9.630;2023-06-22T04:32:16;15.40;;;6.40;;
19495;SDS011;9888;48.606;9.630;2023-06-22T04:34:45;15.13;;;6.93;;
19495;SDS011;9888;48.606;9.630;2023-06-22T04:37:13;15.07;;;7.30;;
19495;SDS011;9888;48.606;9.630;2023-06-22T04:39:42;14.77;;;6.80;;
19495;SDS011;9888;48.606;9.630;2023-06-22T04:42:12;16.07;;;7.50;;
19495;SDS011;9888;48.606;9.630;2023-06-22T04:44:39;18.97;;;8.53;;
19495;SDS011;9888;48.606;9.630;2023-06-22T04:47:08;20.23;;;8.87;;
19495;SDS011;9888;48.606;9.630;2023-06-22T04:49:38;16.60;;;7.20;;
19495;SDS011;9888;48.606;9.630;2023-06-22T04:52:10;15.30;;;7.03;;
19495;SDS011;9888;48.606;9.630;2023-06-22T04:54:46;13.97;;;7.37;;
19495;SDS011;9888;48.606;9.630;2023-06-22T04:57:24;20.07;;;7.47;;
19495;SDS011;9888;48.606;9.630;2023-06-22T05:00:03;15.07;;;6.30;;
19495;SDS011;9888;48.606;9.630;2023-06-22T05:02:41;18.70;;;6.70;;
19495;SDS011;9888;48.606;9.630;2023-06-22T05:05:10;11.70;;;5.20;;
19495;SDS011;9888;48.606;9.630;2023-06-22T05:07:44;12.53;;;5.30;;
19495;SDS011;9888;48.606;9.630;2023-06-22T05:10:17;14.17;;;6.60;;
19495;SDS011;9888;48.606;9.630;2023-06-22T05:12:45;16.30;;;5.90;;
19495;SDS011;9888;48.606;9.630;2023-06-22T05:15:23;11.77;;;5.60;;
19495;SDS011;9888;48.606;9.630;2023-06-22T05:18:12;11.77;;;5.33;;
19495;SDS011;9888;48.606;9.630;2023-06-22T05:20:40;14.77;;;5.57;;
19495;SDS011;9888;48.606;9.630;2023-06-22T05:23:07;11.67;;;4.70;;
19495;SDS011;9888;48.606;9.630;2023-06-22T05:25:36;10.80;;;5.20;;
19495;SDS011;9888;48.606;9.630;2023-06-22T05:28:07;13.30;;;4.97;;
19495;SDS011;9888;48.606;9.630;2023-06-22T05:30:38;11.90;;;5.00;;
19495;SDS011;9888;48.606;9.630;2023-06-22T05:33:10;14.10;;;5.17;;
19495;SDS011;9888;48.606;9.630;2023-06-22T05:35:38;11.30;;;4.93;;
19495;SDS011;9888;48.606;9.630;2023-06-22T05:38:13;17.00;;;5.63;;
19495;SDS011;9888;48.606;9.630;2023-06-22T05:40:41;12.80;;;4.73;;
19495;SDS011;9888;48.606;9.630;2023-06-22T05:43:09;19.80;;;5.53;;
19495;SDS011;9888;48.606;9.630;2023-06-22T05:45:36;34.93;;;6.83;;
19495;SDS011;9888;48.606;9.630;2023-06-22T05:48:03;19.53;;;5.27;;
19495;SDS011;9888;48.606;9.630;2023-06-22T05:50:34;11.17;;;4.30;;
19495;SDS011;9888;48.606;9.630;2023-06-22T05:53:04;16.53;;;4.63;;
19495;SDS011;9888;48.606;9.630;2023-06-22T05:55:36;14.83;;;5.50;;
19495;SDS011;9888;48.606;9.630;2023-06-22T05:58:09;17.33;;;6.57;;
19495;SDS011;9888;48.606;9.630;2023-06-22T06:00:36;11.90;;;4.80;;
19495;SDS011;9888;48.606;9.630;2023-06-22T06:03:04;13.83;;;5.00;;
19495;SDS011;9888;48.606;9.630;2023-06-22T06:05:33;12.20;;;5.30;;
19495;SDS011;9888;48.606;9.630;2023-06-22T06:08:01;12.43;;;4.87;;
19495;SDS011;9888;48.606;9.630;2023-06-22T06:10:30;12.17;;;4.20;;
19495;SDS011;9888;48.606;9.630;2023-06-22T06:12:59;10.70;;;4.70;;
19495;SDS011;9888;48.606;9.630;2023-06-22T06:15:28;21.00;;;5.23;;
19495;SDS011;9888;48.606;9.630;2023-06-22T06:17:55;12.30;;;5.33;;
19495;SDS011;9888;48.606;9.630;2023-06-22T06:20:24;14.23;;;5.70;;
19495;SDS011;9888;48.606;9.630;2023-06-22T06:22:56;15.63;;;5.40;;
19495;SDS011;9888;48.606;9.630;2023-06-22T06:25:24;18.50;;;5.67;;
19495;SDS011;9888;48.606;9.630;2023-06-22T06:27:59;13.40;;;6.27;;
19495;SDS011;9888;48.606;9.630;2023-06-22T06:30:27;13.13;;;6.40;;
19495;SDS011;9888;48.606;9.630;2023-06-22T06:32:54;12.57;;;5.53;;
19495;SDS011;9888;48.606;9.630;2023-06-22T06:35:21;16.50;;;5.90;;
19495;SDS011;9888;48.606;9.630;2023-06-22T06:37:49;12.70;;;5.80;;
19495;SDS011;9888;48.606;9.630;2023-06-22T06:40:18;12.07;;;5.27;;
19495;SDS011;9888;48.606;9.630;2023-06-22T06:42:48;16.20;;;6.13;;
19495;SDS011;9888;48.606;9.630;2023-06-22T06:45:20;16.53;;;6.43;;
19495;SDS011;9888;48.606;9.630;2023-06-22T06:47:50;22.57;;;6.47;;
19495;SDS011;9888;48.606;9.630;2023-06-22T06:50:24;13.27;;;6.97;;
19495;SDS011;9888;48.606;9.630;2023-06-22T06:52:52;17.27;;;7.20;;
19495;SDS011;9888;48.606;9.630;2023-06-22T06:55:20;13.77;;;7.20;;
19495;SDS011;9888;48.606;9.630;2023-06-22T06:58:05;14.17;;;6.50;;
19495;SDS011;9888;48.606;9.630;2023-06-22T07:00:42;13.80;;;6.20;;
19495;SDS011;9888;48.606;9.630;2023-06-22T07:03:19;15.20;;;6.90;;
19495;SDS011;9888;48.606;9.630;2023-06-22T07:05:57;12.77;;;6.53;;
19495;SDS011;9888;48.606;9.630;2023-06-22T07:08:27;19.10;;;6.60;;
19495;SDS011;9888;48.606;9.630;2023-06-22T07:11:02;21.63;;;9.20;;
19495;SDS011;9888;48.606;9.630;2023-06-22T07:13:39;15.70;;;7.10;;
19495;SDS011;9888;48.606;9.630;2023-06-22T07:16:12;55.77;;;11.50;;
19495;SDS011;9888;48.606;9.630;2023-06-22T07:18:39;21.73;;;7.30;;
19495;SDS011;9888;48.606;9.630;2023-06-22T07:21:17;22.90;;;6.77;;
19495;SDS011;9888;48.606;9.630;2023-06-22T07:23:49;33.30;;;9.57;;
19495;SDS011;9888;48.606;9.630;2023-06-22T07:26:28;20.33;;;8.07;;
19495;SDS011;9888;48.606;9.630;2023-06-22T07:28:58;20.77;;;6.77;;
19495;SDS011;9888;48.606;9.630;2023-06-22T07:31:27;14.40;;;6.87;;
19495;SDS011;9888;48.606;9.630;2023-06-22T07:33:56;18.07;;;6.67;;
19495;SDS011;9888;48.606;9.630;2023-06-22T07:36:30;15.30;;;7.20;;
19495;SDS011;9888;48.606;9.630;2023-06-22T07:39:02;16.00;;;7.50;;
19495;SDS011;9888;48.606;9.630;2023-06-22T07:41:29;20.20;;;8.27;;
19495;SDS011;9888;48.606;9.630;2023-06-22T07:43:59;14.80;;;7.37;;
19495;SDS011;9888;48.606;9.630;2023-06-22T07:46:27;18.17;;;7.20;;
19495;SDS011;9888;48.606;9.630;2023-06-22T07:49:01;15.30;;;7.10;;
19495;SDS011;9888;48.606;9.630;2023-06-22T07:54:39;20.37;;;7.40;;
19495;SDS011;9888;48.606;9.630;2023-06-22T07:57:07;16.60;;;7.67;;
19495;SDS011;9888;48.606;9.630;2023-06-22T07:59:45;14.53;;;7.70;;
19495;SDS011;9888;48.606;9.630;2023-06-22T08:02:18;15.40;;;7.57;;
19495;SDS011;9888;48.606;9.630;2023-06-22T08:04:49;16.40;;;7.80;;
19495;SDS011;9888;48.606;9.630;2023-06-22T08:07:17;16.00;;;7.70;;
19495;SDS011;9888;48.606;9.630;2023-06-22T08:09:51;16.90;;;7.77;;
19495;SDS011;9888;48.606;9.630;2023-06-22T08:12:30;19.47;;;8.40;;
19495;SDS011;9888;48.606;9.630;2023-06-22T08:14:59;15.87;;;7.70;;
19495;SDS011;9888;48.606;9.630;2023-06-22T08:17:28;15.17;;;7.87;;
19495;SDS011;9888;48.606;9.630;2023-06-22T08:20:03;23.73;;;9.10;;
19495;SDS011;9888;48.606;9.630;2023-06-22T08:22:40;13.10;;;7.47;;
19495;SDS011;9888;48.606;9.630;2023-06-22T08:25:12;18.00;;;8.20;;
19495;SDS011;9888;48.606;9.630;2023-06-22T08:27:44;16.90;;;8.33;;
19495;SDS011;9888;48.606;9.630;2023-06-22T08:30:19;18.70;;;7.87;;
19495;SDS011;9888;48.606;9.630;2023-06-22T08:32:50;19.60;;;7.90;;
19495;SDS011;9888;48.606;9.630;2023-06-22T08:35:22;15.80;;;7.83;;
19495;SDS011;9888;48.606;9.630;2023-06-22T08:37:51;20.23;;;7.57;;
19495;SDS011;9888;48.606;9.630;2023-06-22T08:40:23;17.03;;;8.50;;
19495;SDS011;9888;48.606;9.630;2023-06-22T08:42:51;16.27;;;7.83;;
19495;SDS011;9888;48.606;9.630;2023-06-22T08:45:19;19.53;;;7.83;;
19495;SDS011;9888;48.606;9.630;2023-06-22T08:47:50;18.87;;;8.10;;
19495;SDS011;9888;48.606;9.630;2023-06-22T08:50:17;19.30;;;8.60;;
19495;SDS011;9888;48.606;9.630;2023-06-22T08:52:48;19.97;;;8.37;;
19495;SDS011;9888;48.606;9.630;2023-06-22T08:55:25;18.00;;;8.17;;
19495;SDS011;9888;48.606;9.630;2023-06-22T08:57:58;17.40;;;8.00;;
19495;SDS011;9888;48.606;9.630;2023-06-22T09:00:25;13.93;;;7.90;;
19495;SDS011;9888;48.606;9.630;2023-06-22T09:02:55;24.63;;;8.97;;
19495;SDS011;9888;48.606;9.630;2023-06-22T09:08:57;16.13;;;8.77;;
19495;SDS011;9888;48.606;9.630;2023-06-22T09:11:25;18.57;;;8.43;;
19495;SDS011;9888;48.606;9.630;2023-06-22T09:13:55;18.60;;;9.10;;
19495;SDS011;9888;48.606;9.630;2023-06-22T09:16:25;15.83;;;8.77;;
19495;SDS011;9888;48.606;9.630;2023-06-22T09:18:56;17.83;;;8.87;;
19495;SDS011;9888;48.606;9.630;2023-06-22T09:21:24;20.87;;;9.50;;
19495;SDS011;9888;48.606;9.630;2023-06-22T09:23:53;17.13;;;8.83;;
19495;SDS011;9888;48.606;9.630;2023-06-22T09:26:22;20.43;;;9.40;;
19495;SDS011;9888;48.606;9.630;2023-06-22T09:28:55;18.17;;;8.47;;
19495;SDS011;9888;48.606;9.630;2023-06-22T09:31:51;18.00;;;8.67;;
19495;SDS011;9888;48.606;9.630;2023-06-22T09:34:23;15.33;;;8.90;;
19495;SDS011;9888;48.606;9.630;2023-06-22T09:36:51;22.30;;;9.20;;
19495;SDS011;9888;48.606;9.630;2023-06-22T09:39:19;18.57;;;9.00;;
19495;SDS011;9888;48.606;9.630;2023-06-22T09:41:50;22.73;;;10.30;;
19495;SDS011;9888;48.606;9.630;2023-06-22T09:44:17;17.20;;;9.00;;
19495;SDS011;9888;48.606;9.630;2023-06-22T09:46:51;22.10;;;9.40;;
19495;SDS011;9888;48.606;9.630;2023-06-22T09:49:19;16.73;;;8.47;;
19495;SDS011;9888;48.606;9.630;2023-06-22T09:51:46;19.00;;;8.97;;
19495;SDS011;9888;48.606;9.630;2023-06-22T09:54:29;15.40;;;8.73;;
19495;SDS011;9888;48.606;9.630;2023-06-22T09:56:57;17.40;;;9.30;;
19495;SDS011;9888;48.606;9.630;2023-06-22T10:02:16;21.37;;;9.80;;
19495;SDS011;9888;48.606;9.630;2023-06-22T10:04:49;22.07;;;10.27;;
19495;SDS011;9888;48.606;9.630;2023-06-22T10:07:16;19.03;;;9.90;;
19495;SDS011;9888;48.606;9.630;2023-06-22T10:09:44;19.53;;;9.37;;
19495;SDS011;9888;48.606;9.630;2023-06-22T10:12:11;19.00;;;9.23;;
19495;SDS011;9888;48.606;9.630;2023-06-22T10:14:39;18.80;;;10.30;;
19495;SDS011;9888;48.606;9.630;2023-06-22T10:17:12;19.07;;;10.43;;
19495;SDS011;9888;48.606;9.630;2023-06-22T10:19:44;22.50;;;10.40;;
19495;SDS011;9888;48.606;9.630;2023-06-22T10:22:17;19.63;;;10.10;;
19495;SDS011;9888;48.606;9.630;2023-06-22T10:24:56;18.37;;;9.87;;
19495;SDS011;9888;48.606;9.630;2023-06-22T10:27:28;27.73;;;10.30;;
19495;SDS011;9888;48.606;9.630;2023-06-22T10:33:04;24.50;;;10.00;;
19495;SDS011;9888;48.606;9.630;2023-06-22T10:38:31;20.20;;;10.33;;
19495;SDS011;9888;48.606;9.630;2023-06-22T10:41:00;17.37;;;10.03;;
19495;SDS011;9888;48.606;9.630;2023-06-22T10:43:36;19.40;;;10.20;;
19495;SDS011;9888;48.606;9.630;2023-06-22T10:46:04;20.03;;;9.90;;
19495;SDS011;9888;48.606;9.630;2023-06-22T10:48:34;19.50;;;10.50;;
19495;SDS011;9888;48.606;9.630;2023-06-22T10:51:17;19.00;;;10.47;;
19495;SDS011;9888;48.606;9.630;2023-06-22T10:54:11;17.40;;;9.70;;
19495;SDS011;9888;48.606;9.630;2023-06-22T10:56:49;19.50;;;10.53;;
19495;SDS011;9888;48.606;9.630;2023-06-22T10:59:23;20.23;;;11.23;;
19495;SDS011;9888;48.606;9.630;2023-06-22T11:01:54;18.80;;;9.83;;
19495;SDS011;9888;48.606;9.630;2023-06-22T11:04:23;21.30;;;10.83;;
19495;SDS011;9888;48.606;9.630;2023-06-22T11:06:58;19.63;;;10.27;;
19495;SDS011;9888;48.606;9.630;2023-06-22T11:12:43;20.73;;;10.73;;
19495;SDS011;9888;48.606;9.630;2023-06-22T11:15:12;21.93;;;11.37;;
19495;SDS011;9888;48.606;9.630;2023-06-22T11:17:39;20.13;;;10.67;;
19495;SDS011;9888;48.606;9.630;2023-06-22T11:20:07;31.33;;;9.50;;
19495;SDS011;9888;48.606;9.630;2023-06-22T11:22:39;25.40;;;9.80;;
19495;SDS011;9888;48.606;9.630;2023-06-22T11:25:07;22.80;;;10.33;;
19495;SDS011;9888;48.606;9.630;2023-06-22T11:27:36;17.27;;;10.13;;
19495;SDS011;9888;48.606;9.630;2023-06-22T11:30:05;23.70;;;10.30;;
19495;SDS011;9888;48.606;9.630;2023-06-22T11:32:36;15.80;;;9.97;;
19495;SDS011;9888;48.606;9.630;2023-06-22T11:35:04;20.87;;;10.30;;
19495;SDS011;9888;48.606;9.630;2023-06-22T11:37:32;20.43;;;9.97;;
19495;SDS011;9888;48.606;9.630;2023-06-22T11:39:59;17.63;;;10.60;;
19495;SDS011;9888;48.606;9.630;2023-06-22T11:42:30;19.17;;;9.53;;
19495;SDS011;9888;48.606;9.630;2023-06-22T11:44:58;18.40;;;10.50;;
19495;SDS011;9888;48.606;9.630;2023-06-22T11:47:25;22.60;;;9.50;;
19495;SDS011;9888;48.606;9.630;2023-06-22T11:49:53;16.43;;;10.50;;
19495;SDS011;9888;48.606;9.630;2023-06-22T11:52:22;24.80;;;10.50;;
19495;SDS011;9888;48.606;9.630;2023-06-22T11:54:50;18.13;;;9.47;;
19495;SDS011;9888;48.606;9.630;2023-06-22T11:57:17;22.97;;;10.93;;
19495;SDS011;9888;48.606;9.630;2023-06-22T11:59:45;15.80;;;10.13;;
19495;SDS011;9888;48.606;9.630;2023-06-22T12:02:13;22.93;;;10.77;;
19495;SDS011;9888;48.606;9.630;2023-06-22T12:04:41;20.10;;;9.90;;
19495;SDS011;9888;48.606;9.630;2023-06-22T12:07:09;18.60;;;10.83;;
19495;SDS011;9888;48.606;9.630;2023-06-22T12:09:37;18.00;;;10.50;;
19495;SDS011;9888;48.606;9.630;2023-06-22T12:12:05;20.50;;;10.77;;
19495;SDS011;9888;48.606;9.630;2023-06-22T12:14:43;26.37;;;10.10;;
19495;SDS011;9888;48.606;9.630;2023-06-22T12:17:13;22.10;;;9.67;;
19495;SDS011;9888;48.606;9.630;2023-06-22T12:19:45;15.80;;;10.20;;
19495;SDS011;9888;48.606;9.630;2023-06-22T12:22:12;16.43;;;10.70;;
19495;SDS011;9888;48.606;9.630;2023-06-22T12:24:47;19.73;;;11.13;;
19495;SDS011;9888;48.606;9.630;2023-06-22T12:27:18;23.27;;;11.07;;
19495;SDS011;9888;48.606;9.630;2023-06-22T12:29:48;19.90;;;11.33;;
19495;SDS011;9888;48.606;9.630;2023-06-22T12:32:48;18.03;;;11.13;;
19495;SDS011;9888;48.606;9.630;2023-06-22T12:35:23;16.90;;;10.20;;
19495;SDS011;9888;48.606;9.630;2023-06-22T12:37:52;17.63;;;10.37;;
19495;SDS011;9888;48.606;9.630;2023-06-22T12:40:20;20.93;;;11.80;;
19495;SDS011;9888;48.606;9.630;2023-06-22T12:42:47;46.53;;;24.93;;
19495;SDS011;9888;48.606;9.630;2023-06-22T12:45:15;22.77;;;12.20;;
19495;SDS011;9888;48.606;9.630;2023-06-22T12:47:43;19.40;;;11.30;;
19495;SDS011;9888;48.606;9.630;2023-06-22T12:50:11;19.40;;;10.40;;
19495;SDS011;9888;48.606;9.630;2023-06-22T12:52:39;22.60;;;10.27;;
19495;SDS011;9888;48.606;9.630;2023-06-22T12:55:10;20.93;;;11.00;;
19495;SDS011;9888;48.606;9.630;2023-06-22T12:57:51;31.70;;;10.77;;
19495;SDS011;9888;48.606;9.630;2023-06-22T13:00:19;19.10;;;11.37;;
19495;SDS011;9888;48.606;9.630;2023-06-22T13:02:47;22.83;;;10.90;;
19495;SDS011;9888;48.606;9.630;2023-06-22T13:05:15;15.40;;;10.07;;
19495;SDS011;9888;48.606;9.630;2023-06-22T13:07:44;21.60;;;10.57;;
19495;SDS011;9888;48.606;9.630;2023-06-22T13:10:13;20.30;;;10.97;;
19495;SDS011;9888;48.606;9.630;2023-06-22T13:12:43;17.23;;;10.07;;
19495;SDS011;9888;48.606;9.630;2023-06-22T13:15:15;19.80;;;10.60;;
19495;SDS011;9888;48.606;9.630;2023-06-22T13:17:42;20.73;;;10.57;;
19495;SDS011;9888;48.606;9.630;2023-06-22T13:20:10;19.53;;;10.90;;
19495;SDS011;9888;48.606;9.630;2023-06-22T13:22:38;17.13;;;9.80;;
19495;SDS011;9888;48.606;9.630;2023-06-22T13:25:06;26.50;;;11.70;;
19495;SDS011;9888;48.606;9.630;2023-06-22T13:27:40;17.83;;;11.00;;
19495;SDS011;9888;48.606;9.630;2023-06-22T13:30:09;24.73;;;11.47;;
19495;SDS011;9888;48.606;9.630;2023-06-22T13:32:37;18.73;;;10.60;;
19495;SDS011;9888;48.606;9.630;2023-06-22T13:35:08;25.70;;;11.90;;
19495;SDS011;9888;48.606;9.630;2023-06-22T13:37:37;22.03;;;10.00;;
19495;SDS011;9888;48.606;9.630;2023-06-22T13:40:09;22.43;;;11.33;;
19495;SDS011;9888;48.606;9.630;2023-06-22T13:42:39;19.30;;;10.77;;
19495;SDS011;9888;48.606;9.630;2023-06-22T13:45:10;22.60;;;11.60;;
19495;SDS011;9888;48.606;9.630;2023-06-22T13:50:42;17.97;;;10.63;;
19495;SDS011;9888;48.606;9.630;2023-06-22T13:53:10;19.37;;;11.10;;
19495;SDS011;9888;48.606;9.630;2023-06-22T13:55:39;22.23;;;10.43;;
19495;SDS011;9888;48.606;9.630;2023-06-22T13:58:06;18.00;;;10.30;;
19495;SDS011;9888;48.606;9.630;2023-06-22T14:00:34;17.57;;;10.03;;
19495;SDS011;9888;48.606;9.630;2023-06-22T14:03:05;20.33;;;9.97;;
19495;SDS011;9888;48.606;9.630;2023-06-22T14:05:33;21.40;;;9.53;;
19495;SDS011;9888;48.606;9.630;2023-06-22T14:08:02;18.87;;;10.20;;
19495;SDS011;9888;48.606;9.630;2023-06-22T14:10:29;22.23;;;10.17;;
19495;SDS011;9888;48.606;9.630;2023-06-22T14:13:07;17.50;;;9.40;;
19495;SDS011;9888;48.606;9.630;2023-06-22T14:15:36;23.97;;;10.23;;
19495;SDS011;9888;48.606;9.630;2023-06-22T14:18:04;20.40;;;10.17;;
19495;SDS011;9888;48.606;9.630;2023-06-22T14:20:32;18.07;;;9.97;;
19495;SDS011;9888;48.606;9.630;2023-06-22T14:23:00;18.90;;;10.03;;
19495;SDS011;9888;48.606;9.630;2023-06-22T14:25:27;19.63;;;10.67;;
19495;SDS011;9888;48.606;9.630;2023-06-22T14:27:54;20.43;;;10.27;;
19495;SDS011;9888;48.606;9.630;2023-06-22T14:30:22;21.30;;;9.50;;
19495;SDS011;9888;48.606;9.630;2023-06-22T14:32:52;18.40;;;9.17;;
19495;SDS011;9888;48.606;9.630;2023-06-22T14:35:19;18.00;;;9.50;;
19495;SDS011;9888;48.606;9.630;2023-06-22T14:37:48;18.67;;;9.90;;
19495;SDS011;9888;48.606;9.630;2023-06-22T14:40:15;19.33;;;9.63;;
19495;SDS011;9888;48.606;9.630;2023-06-22T14:42:42;20.70;;;10.40;;
19495;SDS011;9888;48.606;9.630;2023-06-22T14:45:10;20.47;;;9.53;;
19495;SDS011;9888;48.606;9.630;2023-06-22T14:47:38;20.53;;;9.90;;
19495;SDS011;9888;48.606;9.630;2023-06-22T14:50:06;15.80;;;8.80;;
19495;SDS011;9888;48.606;9.630;2023-06-22T14:52:34;19.17;;;10.00;;
19495;SDS011;9888;48.606;9.630;2023-06-22T14:55:02;20.30;;;9.50;;
19495;SDS011;9888;48.606;9.630;2023-06-22T14:57:40;19.70;;;9.30;;
19495;SDS011;9888;48.606;9.630;2023-06-22T15:00:22;18.40;;;9.90;;
19495;SDS011;9888;48.606;9.630;2023-06-22T15:02:52;17.60;;;9.23;;
19495;SDS011;9888;48.606;9.630;2023-06-22T15:05:25;19.90;;;9.80;;
19495;SDS011;9888;48.606;9.630;2023-06-22T15:07:54;22.33;;;9.17;;
19495;SDS011;9888;48.606;9.630;2023-06-22T15:10:27;17.50;;;8.70;;
19495;SDS011;9888;48.606;9.630;2023-06-22T15:13:12;17.23;;;8.50;;
19495;SDS011;9888;48.606;9.630;2023-06-22T15:15:41;15.13;;;8.27;;
19495;SDS011;9888;48.606;9.630;2023-06-22T15:18:11;17.83;;;8.67;;
19495;SDS011;9888;48.606;9.630;2023-06-22T15:20:40;15.63;;;8.67;;
19495;SDS011;9888;48.606;9.630;2023-06-22T15:23:10;17.27;;;7.87;;
19495;SDS011;9888;48.606;9.630;2023-06-22T15:25:39;23.07;;;8.60;;
19495;SDS011;9888;48.606;9.630;2023-06-22T15:28:12;19.73;;;8.30;;
19495;SDS011;9888;48.606;9.630;2023-06-22T15:30:40;19.23;;;8.20;;
19495;SDS011;9888;48.606;9.630;2023-06-22T15:33:07;20.03;;;8.27;;
19495;SDS011;9888;48.606;9.630;2023-06-22T15:35:35;17.20;;;8.30;;
19495;SDS011;9888;48.606;9.630;2023-06-22T15:38:04;23.20;;;8.33;;